sensor_id;sensor_type;location;lat;lon;timestamp;P1;durP1;ratioP1;P2;durP2;ratioP2
56171;SDS011;42052;41.634;-0.946;2023-07-31T00:01:47;3.90;;;1.65;;
56171;SDS011;42052;41.634;-0.946;2023-07-31T00:04:14;3.97;;;1.75;;
56171;SDS011;42052;41.634;-0.946;2023-07-31T00:06:40;3.90;;;1.23;;
56171;SDS011;42052;41.634;-0.946;2023-07-31T00:09:05;3.63;;;1.48;;
56171;SDS011;42052;41.634;-0.946;2023-07-31T00:11:31;4.85;;;1.50;;
56171;SDS011;42052;41.634;-0.946;2023-07-31T00:13:57;4.15;;;1.40;;
56171;SDS011;42052;41.634;-0.946;2023-07-31T00:16:23;2.80;;;1.58;;
56171;SDS011;42052;41.634;-0.946;2023-07-31T00:18:49;2.92;;;1.33;;
56171;SDS011;42052;41.634;-0.946;2023-07-31T00:21:14;1.80;;;1.27;;
56171;SDS011;42052;41.634;-0.946;2023-07-31T00:23:40;1.95;;;1.13;;
56171;SDS011;42052;41.634;-0.946;2023-07-31T00:26:06;1.92;;;1.30;;
56171;SDS011;42052;41.634;-0.946;2023-07-31T00:28:31;2.10;;;1.17;;
56171;SDS011;42052;41.634;-0.946;2023-07-31T00:30:58;3.55;;;1.50;;
56171;SDS011;42052;41.634;-0.946;2023-07-31T00:33:24;4.03;;;1.58;;
56171;SDS011;42052;41.634;-0.946;2023-07-31T00:35:49;5.30;;;1.70;;
56171;SDS011;42052;41.634;-0.946;2023-07-31T00:38:16;2.80;;;1.50;;
56171;SDS011;42052;41.634;-0.946;2023-07-31T00:40:42;2.67;;;1.38;;
56171;SDS011;42052;41.634;-0.946;2023-07-31T00:43:07;2.60;;;1.40;;
56171;SDS011;42052;41.634;-0.946;2023-07-31T00:45:33;3.78;;;1.25;;
56171;SDS011;42052;41.634;-0.946;2023-07-31T00:47:59;3.63;;;1.40;;
56171;SDS011;42052;41.634;-0.946;2023-07-31T00:50:25;1.70;;;1.20;;
56171;SDS011;42052;41.634;-0.946;2023-07-31T00:52:52;3.50;;;1.42;;
56171;SDS011;42052;41.634;-0.946;2023-07-31T00:55:17;2.65;;;1.13;;
56171;SDS011;42052;41.634;-0.946;2023-07-31T00:57:44;2.58;;;1.30;;
56171;SDS011;42052;41.634;-0.946;2023-07-31T01:00:12;2.78;;;1.30;;
56171;SDS011;42052;41.634;-0.946;2023-07-31T01:02:38;2.67;;;1.30;;
56171;SDS011;42052;41.634;-0.946;2023-07-31T01:05:04;3.83;;;1.38;;
56171;SDS011;42052;41.634;-0.946;2023-07-31T01:07:46;2.53;;;1.27;;
56171;SDS011;42052;41.634;-0.946;2023-07-31T01:10:23;3.60;;;1.40;;
56171;SDS011;42052;41.634;-0.946;2023-07-31T01:12:55;3.15;;;1.35;;
56171;SDS011;42052;41.634;-0.946;2023-07-31T01:15:22;1.75;;;1.20;;
56171;SDS011;42052;41.634;-0.946;2023-07-31T01:17:48;2.78;;;1.25;;
56171;SDS011;42052;41.634;-0.946;2023-07-31T01:20:17;4.18;;;1.35;;
56171;SDS011;42052;41.634;-0.946;2023-07-31T01:31:09;4.10;;;1.40;;
56171;SDS011;42052;41.634;-0.946;2023-07-31T01:33:40;2.00;;;1.30;;
56171;SDS011;42052;41.634;-0.946;2023-07-31T01:36:06;2.13;;;1.10;;
56171;SDS011;42052;41.634;-0.946;2023-07-31T01:38:33;2.80;;;1.13;;
56171;SDS011;42052;41.634;-0.946;2023-07-31T01:40:59;2.35;;;1.30;;
56171;SDS011;42052;41.634;-0.946;2023-07-31T01:43:24;2.95;;;1.30;;
56171;SDS011;42052;41.634;-0.946;2023-07-31T01:45:50;3.17;;;1.30;;
56171;SDS011;42052;41.634;-0.946;2023-07-31T01:48:16;2.83;;;1.15;;
56171;SDS011;42052;41.634;-0.946;2023-07-31T01:50:42;1.92;;;1.00;;
56171;SDS011;42052;41.634;-0.946;2023-07-31T01:53:07;1.80;;;1.15;;
56171;SDS011;42052;41.634;-0.946;2023-07-31T01:55:33;3.58;;;1.50;;
56171;SDS011;42052;41.634;-0.946;2023-07-31T01:57:59;2.25;;;1.15;;
56171;SDS011;42052;41.634;-0.946;2023-07-31T02:00:25;2.60;;;1.25;;
56171;SDS011;42052;41.634;-0.946;2023-07-31T02:02:50;2.53;;;1.30;;
56171;SDS011;42052;41.634;-0.946;2023-07-31T02:05:16;2.47;;;1.20;;
56171;SDS011;42052;41.634;-0.946;2023-07-31T02:07:42;2.90;;;1.42;;
56171;SDS011;42052;41.634;-0.946;2023-07-31T02:10:08;4.13;;;1.42;;
56171;SDS011;42052;41.634;-0.946;2023-07-31T02:12:34;4.13;;;1.30;;
56171;SDS011;42052;41.634;-0.946;2023-07-31T02:15:00;3.35;;;1.33;;
56171;SDS011;42052;41.634;-0.946;2023-07-31T02:17:25;3.10;;;1.33;;
56171;SDS011;42052;41.634;-0.946;2023-07-31T02:19:51;2.13;;;1.55;;
56171;SDS011;42052;41.634;-0.946;2023-07-31T02:22:17;2.90;;;1.25;;
56171;SDS011;42052;41.634;-0.946;2023-07-31T02:24:43;4.80;;;1.48;;
56171;SDS011;42052;41.634;-0.946;2023-07-31T02:27:09;3.10;;;1.20;;
56171;SDS011;42052;41.634;-0.946;2023-07-31T02:29:34;3.58;;;1.30;;
56171;SDS011;42052;41.634;-0.946;2023-07-31T02:32:01;2.33;;;1.27;;
56171;SDS011;42052;41.634;-0.946;2023-07-31T02:34:27;3.67;;;1.35;;
56171;SDS011;42052;41.634;-0.946;2023-07-31T02:36:53;2.45;;;1.02;;
56171;SDS011;42052;41.634;-0.946;2023-07-31T02:39:19;2.22;;;1.20;;
56171;SDS011;42052;41.634;-0.946;2023-07-31T02:41:44;2.17;;;1.27;;
56171;SDS011;42052;41.634;-0.946;2023-07-31T02:44:10;2.75;;;1.05;;
56171;SDS011;42052;41.634;-0.946;2023-07-31T02:46:39;1.90;;;1.23;;
56171;SDS011;42052;41.634;-0.946;2023-07-31T02:49:05;2.35;;;1.23;;
56171;SDS011;42052;41.634;-0.946;2023-07-31T02:51:30;2.17;;;1.30;;
56171;SDS011;42052;41.634;-0.946;2023-07-31T02:53:56;2.65;;;1.30;;
56171;SDS011;42052;41.634;-0.946;2023-07-31T02:56:22;1.75;;;1.15;;
56171;SDS011;42052;41.634;-0.946;2023-07-31T02:58:48;2.05;;;1.33;;
56171;SDS011;42052;41.634;-0.946;2023-07-31T03:01:14;4.90;;;1.30;;
56171;SDS011;42052;41.634;-0.946;2023-07-31T03:03:40;2.03;;;1.33;;
56171;SDS011;42052;41.634;-0.946;2023-07-31T03:06:07;2.30;;;1.45;;
56171;SDS011;42052;41.634;-0.946;2023-07-31T03:08:33;2.80;;;1.27;;
56171;SDS011;42052;41.634;-0.946;2023-07-31T03:10:58;2.63;;;1.40;;
56171;SDS011;42052;41.634;-0.946;2023-07-31T03:13:24;1.45;;;1.15;;
56171;SDS011;42052;41.634;-0.946;2023-07-31T03:15:50;2.78;;;1.50;;
56171;SDS011;42052;41.634;-0.946;2023-07-31T03:18:16;2.67;;;1.27;;
56171;SDS011;42052;41.634;-0.946;2023-07-31T03:20:42;1.98;;;1.20;;
56171;SDS011;42052;41.634;-0.946;2023-07-31T03:23:09;2.45;;;1.40;;
56171;SDS011;42052;41.634;-0.946;2023-07-31T03:25:34;2.33;;;1.10;;
56171;SDS011;42052;41.634;-0.946;2023-07-31T03:28:02;3.25;;;1.40;;
56171;SDS011;42052;41.634;-0.946;2023-07-31T03:30:28;3.40;;;1.50;;
56171;SDS011;42052;41.634;-0.946;2023-07-31T03:32:54;3.30;;;1.52;;
56171;SDS011;42052;41.634;-0.946;2023-07-31T03:35:19;3.22;;;1.45;;
56171;SDS011;42052;41.634;-0.946;2023-07-31T03:37:45;2.90;;;1.30;;
56171;SDS011;42052;41.634;-0.946;2023-07-31T03:40:11;3.10;;;1.30;;
56171;SDS011;42052;41.634;-0.946;2023-07-31T03:42:36;2.58;;;1.40;;
56171;SDS011;42052;41.634;-0.946;2023-07-31T03:45:02;2.03;;;1.23;;
56171;SDS011;42052;41.634;-0.946;2023-07-31T03:47:28;4.15;;;1.40;;
56171;SDS011;42052;41.634;-0.946;2023-07-31T03:49:54;2.10;;;1.27;;
56171;SDS011;42052;41.634;-0.946;2023-07-31T03:52:20;3.58;;;1.50;;
56171;SDS011;42052;41.634;-0.946;2023-07-31T03:54:46;4.50;;;1.30;;
56171;SDS011;42052;41.634;-0.946;2023-07-31T03:57:11;1.90;;;1.40;;
56171;SDS011;42052;41.634;-0.946;2023-07-31T03:59:37;3.03;;;1.50;;
56171;SDS011;42052;41.634;-0.946;2023-07-31T04:02:04;3.20;;;1.48;;
56171;SDS011;42052;41.634;-0.946;2023-07-31T04:04:30;2.45;;;1.30;;
56171;SDS011;42052;41.634;-0.946;2023-07-31T04:06:56;2.78;;;1.30;;
56171;SDS011;42052;41.634;-0.946;2023-07-31T04:09:22;2.20;;;1.50;;
56171;SDS011;42052;41.634;-0.946;2023-07-31T04:11:47;2.13;;;1.20;;
56171;SDS011;42052;41.634;-0.946;2023-07-31T04:14:13;2.67;;;1.38;;
56171;SDS011;42052;41.634;-0.946;2023-07-31T04:16:39;2.33;;;1.30;;
56171;SDS011;42052;41.634;-0.946;2023-07-31T04:19:05;4.90;;;1.70;;
56171;SDS011;42052;41.634;-0.946;2023-07-31T04:21:30;2.80;;;1.50;;
56171;SDS011;42052;41.634;-0.946;2023-07-31T04:23:56;2.25;;;1.40;;
56171;SDS011;42052;41.634;-0.946;2023-07-31T04:26:23;2.80;;;1.70;;
56171;SDS011;42052;41.634;-0.946;2023-07-31T04:28:49;3.92;;;1.27;;
56171;SDS011;42052;41.634;-0.946;2023-07-31T04:31:14;4.38;;;1.60;;
56171;SDS011;42052;41.634;-0.946;2023-07-31T04:33:45;3.47;;;1.13;;
56171;SDS011;42052;41.634;-0.946;2023-07-31T04:36:11;2.65;;;1.42;;
56171;SDS011;42052;41.634;-0.946;2023-07-31T04:38:37;2.45;;;1.38;;
56171;SDS011;42052;41.634;-0.946;2023-07-31T04:41:03;1.90;;;1.30;;
56171;SDS011;42052;41.634;-0.946;2023-07-31T04:43:30;2.60;;;1.60;;
56171;SDS011;42052;41.634;-0.946;2023-07-31T04:45:56;1.98;;;1.30;;
56171;SDS011;42052;41.634;-0.946;2023-07-31T04:48:23;2.38;;;1.40;;
56171;SDS011;42052;41.634;-0.946;2023-07-31T04:50:48;1.67;;;1.50;;
56171;SDS011;42052;41.634;-0.946;2023-07-31T04:53:14;2.50;;;1.33;;
56171;SDS011;42052;41.634;-0.946;2023-07-31T04:55:40;2.70;;;1.48;;
56171;SDS011;42052;41.634;-0.946;2023-07-31T04:58:06;2.13;;;1.38;;
56171;SDS011;42052;41.634;-0.946;2023-07-31T05:00:32;4.63;;;1.75;;
56171;SDS011;42052;41.634;-0.946;2023-07-31T05:02:58;3.42;;;1.60;;
56171;SDS011;42052;41.634;-0.946;2023-07-31T05:05:23;4.00;;;1.60;;
56171;SDS011;42052;41.634;-0.946;2023-07-31T05:07:49;2.13;;;1.30;;
56171;SDS011;42052;41.634;-0.946;2023-07-31T05:10:15;3.03;;;1.70;;
56171;SDS011;42052;41.634;-0.946;2023-07-31T05:12:41;2.55;;;1.40;;
56171;SDS011;42052;41.634;-0.946;2023-07-31T05:15:06;2.42;;;1.58;;
56171;SDS011;42052;41.634;-0.946;2023-07-31T05:17:33;5.35;;;1.90;;
56171;SDS011;42052;41.634;-0.946;2023-07-31T05:19:59;14.50;;;3.88;;
56171;SDS011;42052;41.634;-0.946;2023-07-31T05:22:25;23.63;;;5.43;;
56171;SDS011;42052;41.634;-0.946;2023-07-31T05:24:50;25.90;;;6.30;;
56171;SDS011;42052;41.634;-0.946;2023-07-31T05:27:16;22.45;;;6.65;;
56171;SDS011;42052;41.634;-0.946;2023-07-31T05:29:43;32.00;;;7.55;;
56171;SDS011;42052;41.634;-0.946;2023-07-31T05:32:09;34.13;;;7.68;;
56171;SDS011;42052;41.634;-0.946;2023-07-31T05:34:35;25.13;;;6.75;;
56171;SDS011;42052;41.634;-0.946;2023-07-31T05:37:01;32.90;;;6.43;;
56171;SDS011;42052;41.634;-0.946;2023-07-31T05:39:27;23.75;;;5.90;;
56171;SDS011;42052;41.634;-0.946;2023-07-31T05:41:53;25.38;;;5.07;;
56171;SDS011;42052;41.634;-0.946;2023-07-31T05:44:19;17.70;;;4.75;;
56171;SDS011;42052;41.634;-0.946;2023-07-31T05:46:44;17.35;;;4.75;;
56171;SDS011;42052;41.634;-0.946;2023-07-31T05:49:10;14.10;;;4.40;;
56171;SDS011;42052;41.634;-0.946;2023-07-31T05:51:44;15.25;;;4.00;;
56171;SDS011;42052;41.634;-0.946;2023-07-31T05:54:10;11.52;;;4.22;;
56171;SDS011;42052;41.634;-0.946;2023-07-31T05:56:36;14.40;;;3.80;;
56171;SDS011;42052;41.634;-0.946;2023-07-31T05:59:01;15.70;;;4.30;;
56171;SDS011;42052;41.634;-0.946;2023-07-31T06:01:28;14.15;;;3.70;;
56171;SDS011;42052;41.634;-0.946;2023-07-31T06:03:54;13.90;;;3.65;;
56171;SDS011;42052;41.634;-0.946;2023-07-31T06:06:19;14.95;;;4.03;;
56171;SDS011;42052;41.634;-0.946;2023-07-31T06:08:45;12.80;;;3.58;;
56171;SDS011;42052;41.634;-0.946;2023-07-31T06:11:11;15.30;;;3.60;;
56171;SDS011;42052;41.634;-0.946;2023-07-31T06:13:37;14.32;;;3.95;;
56171;SDS011;42052;41.634;-0.946;2023-07-31T06:16:02;14.05;;;3.72;;
56171;SDS011;42052;41.634;-0.946;2023-07-31T06:18:34;10.63;;;3.60;;
56171;SDS011;42052;41.634;-0.946;2023-07-31T06:21:00;11.50;;;3.72;;
56171;SDS011;42052;41.634;-0.946;2023-07-31T06:23:26;11.73;;;3.78;;
56171;SDS011;42052;41.634;-0.946;2023-07-31T06:25:51;13.10;;;3.92;;
56171;SDS011;42052;41.634;-0.946;2023-07-31T06:28:17;12.70;;;3.63;;
56171;SDS011;42052;41.634;-0.946;2023-07-31T06:30:43;11.90;;;3.72;;
56171;SDS011;42052;41.634;-0.946;2023-07-31T06:33:08;11.73;;;3.60;;
56171;SDS011;42052;41.634;-0.946;2023-07-31T06:35:34;12.52;;;3.60;;
56171;SDS011;42052;41.634;-0.946;2023-07-31T06:38:00;10.30;;;3.40;;
56171;SDS011;42052;41.634;-0.946;2023-07-31T06:40:27;12.32;;;3.20;;
56171;SDS011;42052;41.634;-0.946;2023-07-31T06:42:53;11.15;;;3.10;;
56171;SDS011;42052;41.634;-0.946;2023-07-31T06:45:19;9.38;;;3.25;;
56171;SDS011;42052;41.634;-0.946;2023-07-31T06:47:45;12.20;;;3.70;;
56171;SDS011;42052;41.634;-0.946;2023-07-31T06:50:11;10.85;;;3.50;;
56171;SDS011;42052;41.634;-0.946;2023-07-31T06:52:36;7.88;;;3.00;;
56171;SDS011;42052;41.634;-0.946;2023-07-31T06:55:03;8.68;;;3.35;;
56171;SDS011;42052;41.634;-0.946;2023-07-31T06:57:45;8.88;;;2.72;;
56171;SDS011;42052;41.634;-0.946;2023-07-31T07:00:12;7.97;;;3.25;;
56171;SDS011;42052;41.634;-0.946;2023-07-31T07:02:38;8.73;;;3.35;;
56171;SDS011;42052;41.634;-0.946;2023-07-31T07:05:04;8.23;;;3.08;;
56171;SDS011;42052;41.634;-0.946;2023-07-31T07:07:31;10.13;;;2.75;;
56171;SDS011;42052;41.634;-0.946;2023-07-31T07:09:57;8.25;;;3.08;;
56171;SDS011;42052;41.634;-0.946;2023-07-31T07:12:29;9.27;;;3.15;;
56171;SDS011;42052;41.634;-0.946;2023-07-31T07:14:56;7.57;;;2.83;;
56171;SDS011;42052;41.634;-0.946;2023-07-31T07:17:29;8.48;;;2.78;;
56171;SDS011;42052;41.634;-0.946;2023-07-31T07:19:58;6.35;;;2.60;;
56171;SDS011;42052;41.634;-0.946;2023-07-31T07:22:25;9.93;;;2.92;;
56171;SDS011;42052;41.634;-0.946;2023-07-31T07:24:52;6.95;;;2.90;;
56171;SDS011;42052;41.634;-0.946;2023-07-31T07:27:18;6.03;;;2.45;;
56171;SDS011;42052;41.634;-0.946;2023-07-31T07:29:45;5.95;;;3.05;;
56171;SDS011;42052;41.634;-0.946;2023-07-31T07:32:11;7.60;;;3.00;;
56171;SDS011;42052;41.634;-0.946;2023-07-31T07:34:37;6.43;;;2.53;;
56171;SDS011;42052;41.634;-0.946;2023-07-31T07:37:03;7.10;;;2.90;;
56171;SDS011;42052;41.634;-0.946;2023-07-31T07:39:29;8.48;;;2.70;;
56171;SDS011;42052;41.634;-0.946;2023-07-31T07:41:55;6.28;;;2.40;;
56171;SDS011;42052;41.634;-0.946;2023-07-31T07:44:21;6.30;;;2.70;;
56171;SDS011;42052;41.634;-0.946;2023-07-31T07:46:47;6.40;;;2.60;;
56171;SDS011;42052;41.634;-0.946;2023-07-31T07:49:12;6.18;;;2.42;;
56171;SDS011;42052;41.634;-0.946;2023-07-31T07:51:38;5.60;;;2.60;;
56171;SDS011;42052;41.634;-0.946;2023-07-31T07:54:04;7.35;;;2.50;;
56171;SDS011;42052;41.634;-0.946;2023-07-31T07:56:32;6.07;;;2.38;;
56171;SDS011;42052;41.634;-0.946;2023-07-31T07:58:58;7.25;;;2.60;;
56171;SDS011;42052;41.634;-0.946;2023-07-31T08:01:24;5.43;;;2.50;;
56171;SDS011;42052;41.634;-0.946;2023-07-31T08:03:50;5.93;;;2.40;;
56171;SDS011;42052;41.634;-0.946;2023-07-31T08:06:15;5.68;;;2.22;;
56171;SDS011;42052;41.634;-0.946;2023-07-31T08:08:43;5.55;;;2.40;;
56171;SDS011;42052;41.634;-0.946;2023-07-31T08:11:09;7.45;;;2.28;;
56171;SDS011;42052;41.634;-0.946;2023-07-31T08:13:35;5.38;;;2.20;;
56171;SDS011;42052;41.634;-0.946;2023-07-31T08:16:02;6.32;;;2.47;;
56171;SDS011;42052;41.634;-0.946;2023-07-31T08:18:29;6.53;;;2.38;;
56171;SDS011;42052;41.634;-0.946;2023-07-31T08:20:56;5.70;;;2.63;;
56171;SDS011;42052;41.634;-0.946;2023-07-31T08:23:22;5.72;;;2.53;;
56171;SDS011;42052;41.634;-0.946;2023-07-31T08:25:48;4.93;;;2.00;;
56171;SDS011;42052;41.634;-0.946;2023-07-31T08:28:15;6.22;;;2.50;;
56171;SDS011;42052;41.634;-0.946;2023-07-31T08:30:42;4.25;;;2.17;;
56171;SDS011;42052;41.634;-0.946;2023-07-31T08:33:07;3.92;;;2.22;;
56171;SDS011;42052;41.634;-0.946;2023-07-31T08:35:33;5.35;;;2.03;;
56171;SDS011;42052;41.634;-0.946;2023-07-31T08:38:01;3.65;;;2.38;;
56171;SDS011;42052;41.634;-0.946;2023-07-31T08:40:28;4.93;;;1.80;;
56171;SDS011;42052;41.634;-0.946;2023-07-31T08:42:54;4.50;;;2.05;;
56171;SDS011;42052;41.634;-0.946;2023-07-31T08:45:27;4.70;;;2.13;;
56171;SDS011;42052;41.634;-0.946;2023-07-31T08:47:54;3.50;;;2.10;;
56171;SDS011;42052;41.634;-0.946;2023-07-31T08:50:22;4.68;;;2.05;;
56171;SDS011;42052;41.634;-0.946;2023-07-31T08:52:49;5.60;;;2.25;;
56171;SDS011;42052;41.634;-0.946;2023-07-31T08:55:15;4.78;;;2.00;;
56171;SDS011;42052;41.634;-0.946;2023-07-31T08:57:42;4.03;;;2.08;;
56171;SDS011;42052;41.634;-0.946;2023-07-31T09:00:09;4.10;;;2.15;;
56171;SDS011;42052;41.634;-0.946;2023-07-31T09:02:56;4.45;;;1.90;;
56171;SDS011;42052;41.634;-0.946;2023-07-31T09:05:22;4.20;;;2.08;;
56171;SDS011;42052;41.634;-0.946;2023-07-31T09:07:51;5.28;;;2.08;;
56171;SDS011;42052;41.634;-0.946;2023-07-31T09:10:17;3.40;;;1.90;;
56171;SDS011;42052;41.634;-0.946;2023-07-31T09:12:42;5.07;;;2.10;;
56171;SDS011;42052;41.634;-0.946;2023-07-31T09:15:09;4.15;;;1.95;;
56171;SDS011;42052;41.634;-0.946;2023-07-31T09:17:37;4.65;;;1.98;;
56171;SDS011;42052;41.634;-0.946;2023-07-31T09:20:15;5.53;;;1.95;;
56171;SDS011;42052;41.634;-0.946;2023-07-31T09:22:43;4.15;;;1.70;;
56171;SDS011;42052;41.634;-0.946;2023-07-31T09:25:19;3.95;;;1.88;;
56171;SDS011;42052;41.634;-0.946;2023-07-31T09:27:50;3.53;;;1.88;;
56171;SDS011;42052;41.634;-0.946;2023-07-31T09:30:18;3.45;;;1.77;;
56171;SDS011;42052;41.634;-0.946;2023-07-31T09:32:45;3.30;;;1.90;;
56171;SDS011;42052;41.634;-0.946;2023-07-31T09:37:47;4.80;;;2.00;;
56171;SDS011;42052;41.634;-0.946;2023-07-31T09:40:24;4.13;;;1.92;;
56171;SDS011;42052;41.634;-0.946;2023-07-31T09:43:01;3.17;;;1.80;;
56171;SDS011;42052;41.634;-0.946;2023-07-31T09:45:28;3.25;;;1.83;;
56171;SDS011;42052;41.634;-0.946;2023-07-31T09:47:55;3.28;;;1.70;;
56171;SDS011;42052;41.634;-0.946;2023-07-31T09:50:23;3.72;;;1.80;;
56171;SDS011;42052;41.634;-0.946;2023-07-31T09:52:50;2.65;;;1.73;;
56171;SDS011;42052;41.634;-0.946;2023-07-31T09:55:17;3.65;;;2.00;;
56171;SDS011;42052;41.634;-0.946;2023-07-31T09:57:52;4.30;;;2.08;;
56171;SDS011;42052;41.634;-0.946;2023-07-31T10:00:21;3.72;;;1.70;;
56171;SDS011;42052;41.634;-0.946;2023-07-31T10:02:50;3.85;;;1.90;;
56171;SDS011;42052;41.634;-0.946;2023-07-31T10:05:17;3.55;;;1.90;;
56171;SDS011;42052;41.634;-0.946;2023-07-31T10:07:51;3.55;;;1.95;;
56171;SDS011;42052;41.634;-0.946;2023-07-31T10:10:22;5.22;;;1.80;;
56171;SDS011;42052;41.634;-0.946;2023-07-31T10:12:49;1.88;;;1.50;;
56171;SDS011;42052;41.634;-0.946;2023-07-31T10:15:16;3.38;;;1.90;;
56171;SDS011;42052;41.634;-0.946;2023-07-31T10:17:43;4.35;;;1.80;;
56171;SDS011;42052;41.634;-0.946;2023-07-31T10:20:09;2.75;;;1.58;;
56171;SDS011;42052;41.634;-0.946;2023-07-31T10:22:36;2.80;;;1.73;;
56171;SDS011;42052;41.634;-0.946;2023-07-31T10:25:02;3.08;;;1.58;;
56171;SDS011;42052;41.634;-0.946;2023-07-31T10:27:28;3.15;;;1.52;;
56171;SDS011;42052;41.634;-0.946;2023-07-31T10:29:54;2.72;;;1.45;;
56171;SDS011;42052;41.634;-0.946;2023-07-31T10:32:21;2.45;;;1.40;;
56171;SDS011;42052;41.634;-0.946;2023-07-31T10:34:49;2.03;;;1.48;;
56171;SDS011;42052;41.634;-0.946;2023-07-31T10:39:58;2.50;;;1.50;;
56171;SDS011;42052;41.634;-0.946;2023-07-31T10:42:35;2.78;;;1.60;;
56171;SDS011;42052;41.634;-0.946;2023-07-31T10:45:23;2.72;;;1.67;;
56171;SDS011;42052;41.634;-0.946;2023-07-31T10:47:59;2.17;;;1.50;;
56171;SDS011;42052;41.634;-0.946;2023-07-31T10:50:26;2.95;;;1.60;;
56171;SDS011;42052;41.634;-0.946;2023-07-31T10:52:57;2.42;;;1.40;;
56171;SDS011;42052;41.634;-0.946;2023-07-31T10:55:33;2.95;;;1.75;;
56171;SDS011;42052;41.634;-0.946;2023-07-31T11:00:38;2.92;;;1.50;;
56171;SDS011;42052;41.634;-0.946;2023-07-31T11:03:07;2.70;;;1.40;;
56171;SDS011;42052;41.634;-0.946;2023-07-31T11:05:51;1.77;;;1.40;;
56171;SDS011;42052;41.634;-0.946;2023-07-31T11:08:27;3.53;;;1.50;;
56171;SDS011;42052;41.634;-0.946;2023-07-31T11:13:28;2.08;;;1.48;;
56171;SDS011;42052;41.634;-0.946;2023-07-31T11:16:00;2.35;;;1.48;;
56171;SDS011;42052;41.634;-0.946;2023-07-31T11:18:26;2.28;;;1.50;;
56171;SDS011;42052;41.634;-0.946;2023-07-31T11:20:52;3.80;;;1.60;;
56171;SDS011;42052;41.634;-0.946;2023-07-31T11:23:19;1.95;;;1.30;;
56171;SDS011;42052;41.634;-0.946;2023-07-31T11:25:45;2.30;;;1.48;;
56171;SDS011;42052;41.634;-0.946;2023-07-31T11:28:15;2.03;;;1.48;;
56171;SDS011;42052;41.634;-0.946;2023-07-31T11:30:42;2.97;;;1.48;;
56171;SDS011;42052;41.634;-0.946;2023-07-31T11:33:10;2.50;;;1.48;;
56171;SDS011;42052;41.634;-0.946;2023-07-31T11:35:42;2.42;;;1.30;;
56171;SDS011;42052;41.634;-0.946;2023-07-31T11:38:29;2.25;;;1.52;;
56171;SDS011;42052;41.634;-0.946;2023-07-31T11:40:58;1.83;;;1.27;;
56171;SDS011;42052;41.634;-0.946;2023-07-31T11:43:28;1.92;;;1.30;;
56171;SDS011;42052;41.634;-0.946;2023-07-31T11:45:56;2.67;;;1.52;;
56171;SDS011;42052;41.634;-0.946;2023-07-31T11:48:24;3.55;;;1.50;;
56171;SDS011;42052;41.634;-0.946;2023-07-31T11:50:58;2.53;;;1.42;;
56171;SDS011;42052;41.634;-0.946;2023-07-31T11:56:08;2.88;;;1.60;;
56171;SDS011;42052;41.634;-0.946;2023-07-31T11:58:37;3.10;;;1.60;;
56171;SDS011;42052;41.634;-0.946;2023-07-31T12:01:04;2.33;;;1.40;;
56171;SDS011;42052;41.634;-0.946;2023-07-31T12:03:30;1.42;;;1.20;;
56171;SDS011;42052;41.634;-0.946;2023-07-31T12:05:57;2.28;;;1.60;;
56171;SDS011;42052;41.634;-0.946;2023-07-31T12:08:24;2.97;;;1.50;;
56171;SDS011;42052;41.634;-0.946;2023-07-31T12:10:51;2.38;;;1.40;;
56171;SDS011;42052;41.634;-0.946;2023-07-31T12:13:21;2.25;;;1.42;;
56171;SDS011;42052;41.634;-0.946;2023-07-31T12:15:57;2.58;;;1.58;;
56171;SDS011;42052;41.634;-0.946;2023-07-31T12:20:59;2.40;;;1.50;;
56171;SDS011;42052;41.634;-0.946;2023-07-31T12:23:28;3.58;;;1.50;;
56171;SDS011;42052;41.634;-0.946;2023-07-31T12:26:02;2.78;;;1.55;;
56171;SDS011;42052;41.634;-0.946;2023-07-31T12:28:30;1.77;;;1.40;;
56171;SDS011;42052;41.634;-0.946;2023-07-31T12:30:59;2.67;;;1.40;;
56171;SDS011;42052;41.634;-0.946;2023-07-31T12:33:32;2.05;;;1.27;;
56171;SDS011;42052;41.634;-0.946;2023-07-31T12:36:02;3.38;;;1.58;;
56171;SDS011;42052;41.634;-0.946;2023-07-31T12:38:30;2.58;;;1.65;;
56171;SDS011;42052;41.634;-0.946;2023-07-31T12:40:56;2.53;;;1.40;;
56171;SDS011;42052;41.634;-0.946;2023-07-31T12:43:21;2.83;;;1.50;;
56171;SDS011;42052;41.634;-0.946;2023-07-31T12:45:50;2.38;;;1.45;;
56171;SDS011;42052;41.634;-0.946;2023-07-31T12:48:15;2.83;;;1.55;;
56171;SDS011;42052;41.634;-0.946;2023-07-31T12:50:41;2.63;;;1.70;;
56171;SDS011;42052;41.634;-0.946;2023-07-31T12:53:07;2.22;;;1.42;;
56171;SDS011;42052;41.634;-0.946;2023-07-31T12:55:32;1.85;;;1.30;;
56171;SDS011;42052;41.634;-0.946;2023-07-31T12:58:00;2.20;;;1.52;;
56171;SDS011;42052;41.634;-0.946;2023-07-31T13:00:26;2.50;;;1.60;;
56171;SDS011;42052;41.634;-0.946;2023-07-31T13:02:51;2.67;;;1.50;;
56171;SDS011;42052;41.634;-0.946;2023-07-31T13:05:17;1.75;;;1.40;;
56171;SDS011;42052;41.634;-0.946;2023-07-31T13:07:45;2.78;;;1.58;;
56171;SDS011;42052;41.634;-0.946;2023-07-31T13:10:12;2.13;;;1.50;;
56171;SDS011;42052;41.634;-0.946;2023-07-31T13:12:38;2.72;;;1.30;;
56171;SDS011;42052;41.634;-0.946;2023-07-31T13:15:04;2.50;;;1.60;;
56171;SDS011;42052;41.634;-0.946;2023-07-31T13:17:30;2.15;;;1.60;;
56171;SDS011;42052;41.634;-0.946;2023-07-31T13:19:56;2.88;;;1.63;;
56171;SDS011;42052;41.634;-0.946;2023-07-31T13:22:22;2.78;;;1.65;;
56171;SDS011;42052;41.634;-0.946;2023-07-31T13:24:48;2.15;;;1.65;;
56171;SDS011;42052;41.634;-0.946;2023-07-31T13:27:14;3.03;;;1.60;;
56171;SDS011;42052;41.634;-0.946;2023-07-31T13:29:43;3.17;;;1.67;;
56171;SDS011;42052;41.634;-0.946;2023-07-31T13:32:10;2.80;;;1.45;;
56171;SDS011;42052;41.634;-0.946;2023-07-31T13:34:38;1.98;;;1.20;;
56171;SDS011;42052;41.634;-0.946;2023-07-31T13:37:04;1.67;;;1.40;;
56171;SDS011;42052;41.634;-0.946;2023-07-31T13:39:31;1.73;;;1.48;;
56171;SDS011;42052;41.634;-0.946;2023-07-31T13:41:58;2.13;;;1.50;;
56171;SDS011;42052;41.634;-0.946;2023-07-31T13:44:23;2.10;;;1.30;;
56171;SDS011;42052;41.634;-0.946;2023-07-31T13:46:49;1.52;;;1.10;;
56171;SDS011;42052;41.634;-0.946;2023-07-31T13:49:16;2.25;;;1.45;;
56171;SDS011;42052;41.634;-0.946;2023-07-31T13:51:42;1.70;;;1.25;;
56171;SDS011;42052;41.634;-0.946;2023-07-31T13:54:07;2.25;;;1.40;;
56171;SDS011;42052;41.634;-0.946;2023-07-31T13:56:33;1.70;;;1.35;;
56171;SDS011;42052;41.634;-0.946;2023-07-31T13:58:59;2.28;;;1.77;;
56171;SDS011;42052;41.634;-0.946;2023-07-31T14:01:26;1.90;;;1.30;;
56171;SDS011;42052;41.634;-0.946;2023-07-31T14:03:52;1.83;;;1.50;;
56171;SDS011;42052;41.634;-0.946;2023-07-31T14:06:17;1.65;;;1.35;;
56171;SDS011;42052;41.634;-0.946;2023-07-31T14:08:44;2.08;;;1.45;;
56171;SDS011;42052;41.634;-0.946;2023-07-31T14:11:10;1.50;;;1.30;;
56171;SDS011;42052;41.634;-0.946;2023-07-31T14:13:36;2.08;;;1.13;;
56171;SDS011;42052;41.634;-0.946;2023-07-31T14:16:01;2.17;;;1.33;;
56171;SDS011;42052;41.634;-0.946;2023-07-31T14:18:27;2.15;;;1.20;;
56171;SDS011;42052;41.634;-0.946;2023-07-31T14:20:53;1.88;;;1.20;;
56171;SDS011;42052;41.634;-0.946;2023-07-31T14:23:19;1.50;;;1.27;;
56171;SDS011;42052;41.634;-0.946;2023-07-31T14:25:47;1.90;;;1.33;;
56171;SDS011;42052;41.634;-0.946;2023-07-31T14:28:13;1.73;;;1.25;;
56171;SDS011;42052;41.634;-0.946;2023-07-31T14:30:39;1.55;;;1.10;;
56171;SDS011;42052;41.634;-0.946;2023-07-31T14:33:05;1.98;;;1.40;;
56171;SDS011;42052;41.634;-0.946;2023-07-31T14:35:31;1.80;;;1.13;;
56171;SDS011;42052;41.634;-0.946;2023-07-31T14:37:57;1.92;;;1.40;;
56171;SDS011;42052;41.634;-0.946;2023-07-31T14:40:23;1.55;;;1.23;;
56171;SDS011;42052;41.634;-0.946;2023-07-31T14:42:49;1.70;;;1.40;;
56171;SDS011;42052;41.634;-0.946;2023-07-31T14:45:14;2.55;;;1.10;;
56171;SDS011;42052;41.634;-0.946;2023-07-31T14:47:40;2.25;;;1.23;;
56171;SDS011;42052;41.634;-0.946;2023-07-31T14:50:06;1.60;;;1.20;;
56171;SDS011;42052;41.634;-0.946;2023-07-31T14:52:32;2.00;;;1.25;;
56171;SDS011;42052;41.634;-0.946;2023-07-31T14:54:58;1.60;;;1.17;;
56171;SDS011;42052;41.634;-0.946;2023-07-31T14:57:24;2.00;;;1.40;;